TAF CYTZ 230740Z 2308/2408 34010G20KT P6SM FEW050
FM231500 33015KT P6SM FEW040
BECMG 2323/2401 33008KT RMK FCST BASED ON AUTO OBS. NXT FCST BY 231400Z
From batch tds/tafs/production/2022/9/23/h07_m59_tafs.cache.xml
Issued (9 days ago)
Forecasts
2308/2315 34010G20KT P6SM FEW5000

---
fcst_time_to: '2022-09-23T15:00:00Z'
wind_gust_kt: '20'
sky_condition:
- sky_cover: FEW
  cloud_base_ft_agl: '5000'
wind_speed_kt: '10'
fcst_time_from: '2022-09-23T08:00:00Z'
wind_dir_degrees: '340'
visibility_statute_mi: '6.21'

FM231500 33015KT P6SM FEW4000

---
fcst_time_to: '2022-09-23T23:00:00Z'
sky_condition:
- sky_cover: FEW
  cloud_base_ft_agl: '4000'
wind_speed_kt: '15'
fcst_time_from: '2022-09-23T15:00:00Z'
change_indicator: FM
wind_dir_degrees: '330'
visibility_statute_mi: '6.21'

BECMG 2401/2408 33008KT P6SM FEW4000

---
fcst_time_to: '2022-09-24T08:00:00Z'
sky_condition:
- sky_cover: FEW
  cloud_base_ft_agl: '4000'
time_becoming: '2022-09-24T01:00:00Z'
wind_speed_kt: '8'
fcst_time_from: '2022-09-23T23:00:00Z'
change_indicator: BECMG
wind_dir_degrees: '330'
visibility_statute_mi: '6.21'

talk